createdAt,value
2019-03-21T00:00:25.685Z,2.40
2019-03-21T00:02:53.778Z,2.30
2019-03-21T00:05:22.288Z,2.30
2019-03-21T00:07:50.304Z,2.30
2019-03-21T00:11:20.587Z,2.30
2019-03-21T00:13:49.818Z,2.30
2019-03-21T00:16:18.054Z,2.20
2019-03-21T00:18:46.191Z,2.20
2019-03-21T00:21:14.251Z,2.20
2019-03-21T00:23:42.516Z,2.10
2019-03-21T00:26:10.543Z,2.10
2019-03-21T00:28:38.602Z,2.10
2019-03-21T00:31:06.717Z,2.00
2019-03-21T00:33:34.818Z,2.00
2019-03-21T00:36:02.854Z,2.00
2019-03-21T00:38:30.861Z,1.90
2019-03-21T00:40:58.890Z,1.90
2019-03-21T00:43:27.137Z,1.80
2019-03-21T00:45:55.313Z,1.80
2019-03-21T00:48:23.673Z,1.80
2019-03-21T00:50:51.689Z,1.80
2019-03-21T00:53:19.947Z,1.80
2019-03-21T00:55:48.561Z,1.80
2019-03-21T00:58:16.826Z,1.80
2019-03-21T01:00:47.350Z,1.70
2019-03-21T01:03:15.422Z,1.70
2019-03-21T01:05:43.880Z,1.70
2019-03-21T01:08:11.932Z,1.70
2019-03-21T01:10:39.938Z,1.70
2019-03-21T01:13:07.991Z,1.70
2019-03-21T01:15:35.940Z,1.70
2019-03-21T01:18:04.118Z,1.60
2019-03-21T01:20:32.541Z,1.60
2019-03-21T01:23:00.575Z,1.60
2019-03-21T01:25:32.098Z,1.60
2019-03-21T01:28:00.121Z,1.50
2019-03-21T01:30:28.101Z,1.50
2019-03-21T01:32:56.129Z,1.50
2019-03-21T01:35:24.390Z,1.50
2019-03-21T01:37:52.747Z,1.40
2019-03-21T01:40:22.118Z,1.40
2019-03-21T01:42:50.142Z,1.50
2019-03-21T01:45:19.625Z,1.40
2019-03-21T01:47:47.705Z,1.40
2019-03-21T01:50:16.495Z,1.40
2019-03-21T01:52:44.502Z,1.40
2019-03-21T01:55:13.155Z,1.40
2019-03-21T01:57:41.325Z,1.40
2019-03-21T02:00:13.728Z,1.40
2019-03-21T02:02:41.821Z,1.40
2019-03-21T02:05:10.093Z,1.40
2019-03-21T02:07:38.387Z,1.40
2019-03-21T02:10:09.215Z,1.40
2019-03-21T02:12:37.212Z,1.40
2019-03-21T02:15:06.196Z,1.40
2019-03-21T02:17:34.291Z,1.40
2019-03-21T02:20:02.335Z,1.40
2019-03-21T02:22:30.498Z,1.30
2019-03-21T02:24:58.548Z,1.30
2019-03-21T02:27:27.644Z,1.40
2019-03-21T02:29:55.767Z,1.30
2019-03-21T02:32:23.798Z,1.30
2019-03-21T02:34:51.820Z,1.20
2019-03-21T02:37:20.093Z,1.20
2019-03-21T02:39:58.928Z,1.10
2019-03-21T02:42:18.167Z,1.10
2019-03-21T02:44:46.253Z,1.10
2019-03-21T02:47:14.326Z,1.10
2019-03-21T02:49:42.297Z,1.00
2019-03-21T02:52:10.292Z,1.00
2019-03-21T02:54:38.305Z,1.00
2019-03-21T02:57:06.291Z,1.00
2019-03-21T02:59:34.272Z,0.90
2019-03-21T03:02:02.365Z,0.90
2019-03-21T03:04:30.540Z,0.90
2019-03-21T03:06:59.829Z,0.80
2019-03-21T03:09:28.104Z,0.80
2019-03-21T03:11:56.538Z,0.80
2019-03-21T03:14:24.854Z,0.80
2019-03-21T03:16:52.818Z,0.80
2019-03-21T03:19:20.858Z,0.80
2019-03-21T03:21:48.791Z,0.80
2019-03-21T03:24:17.920Z,0.80
2019-03-21T03:26:46.054Z,0.80
2019-03-21T03:29:14.014Z,0.80
2019-03-21T03:31:42.054Z,0.80
2019-03-21T03:34:10.226Z,0.80
2019-03-21T03:36:38.495Z,0.80
2019-03-21T03:39:07.386Z,0.80
2019-03-21T03:41:35.437Z,0.80
2019-03-21T03:44:03.550Z,0.70
2019-03-21T03:46:31.641Z,0.70
2019-03-21T03:48:59.653Z,0.80
2019-03-21T03:51:27.727Z,0.70
2019-03-21T03:53:55.785Z,0.70
2019-03-21T03:56:23.867Z,0.70
2019-03-21T03:58:53.113Z,0.70
2019-03-21T04:01:21.118Z,0.70
2019-03-21T04:03:49.106Z,0.70
2019-03-21T04:06:17.136Z,0.70
2019-03-21T04:08:45.104Z,0.70
2019-03-21T04:11:13.241Z,0.60
2019-03-21T04:13:41.306Z,0.70
2019-03-21T04:16:09.315Z,0.70
2019-03-21T04:18:37.335Z,0.70
2019-03-21T04:21:05.543Z,0.70
2019-03-21T04:23:33.559Z,0.60
2019-03-21T04:26:08.015Z,0.70
2019-03-21T04:28:37.146Z,0.70
2019-03-21T04:31:05.421Z,0.60
2019-03-21T04:33:33.438Z,0.60
2019-03-21T04:36:01.516Z,0.60
2019-03-21T04:38:29.558Z,0.60
2019-03-21T04:40:57.656Z,0.50
2019-03-21T04:43:25.648Z,0.50
2019-03-21T04:46:02.925Z,0.50
2019-03-21T04:48:23.791Z,0.50
2019-03-21T04:50:51.822Z,0.50
2019-03-21T04:53:19.812Z,0.40
2019-03-21T04:55:47.809Z,0.40
2019-03-21T04:58:15.841Z,0.50
2019-03-21T05:00:43.973Z,0.50
2019-03-21T05:03:12.122Z,0.50
2019-03-21T05:05:40.132Z,0.40
2019-03-21T05:08:08.185Z,0.40
2019-03-21T05:10:36.300Z,0.40
2019-03-21T05:13:04.456Z,0.30
2019-03-21T05:15:34.702Z,0.40
2019-03-21T05:18:05.860Z,0.30
2019-03-21T05:20:33.902Z,0.30
2019-03-21T05:23:01.930Z,0.30
2019-03-21T05:25:30.083Z,0.30
2019-03-21T05:27:58.294Z,0.30
2019-03-21T05:30:32.731Z,0.30
2019-03-21T05:33:01.059Z,0.30
2019-03-21T05:35:29.205Z,0.30
2019-03-21T05:37:57.216Z,0.30
2019-03-21T05:40:25.206Z,0.30
2019-03-21T05:43:02.552Z,0.30
2019-03-21T05:45:30.655Z,0.30
2019-03-21T05:47:59.020Z,0.40
2019-03-21T05:50:27.062Z,0.40
2019-03-21T05:52:55.073Z,0.40
2019-03-21T05:55:23.157Z,0.40
2019-03-21T05:57:51.283Z,0.50
2019-03-21T06:00:27.324Z,0.60
2019-03-21T06:02:55.301Z,0.70
2019-03-21T06:05:24.477Z,0.90
2019-03-21T06:07:56.384Z,1.30
2019-03-21T06:10:24.475Z,1.70
2019-03-21T06:12:52.546Z,2.50
2019-03-21T06:15:23.398Z,3.40
2019-03-21T06:18:23.038Z,4.20
2019-03-21T06:21:15.194Z,4.70
2019-03-21T06:24:08.899Z,5.50
2019-03-21T06:26:42.563Z,6.70
2019-03-21T06:29:11.740Z,7.80
2019-03-21T06:31:39.915Z,8.70
2019-03-21T06:34:07.980Z,9.60
2019-03-21T06:36:36.039Z,10.20
2019-03-21T06:39:06.483Z,10.80
2019-03-21T06:41:34.492Z,11.60
2019-03-21T06:44:02.846Z,12.40
2019-03-21T06:46:30.889Z,13.10
2019-03-21T06:48:58.901Z,13.80
2019-03-21T06:51:26.915Z,14.40
2019-03-21T06:53:54.902Z,15.10
2019-03-21T06:56:22.975Z,15.70
2019-03-21T06:58:52.617Z,16.20
2019-03-21T07:01:21.097Z,16.70
2019-03-21T07:03:49.195Z,17.30
2019-03-21T07:06:17.190Z,17.80
2019-03-21T07:08:45.245Z,18.10
2019-03-21T07:11:13.229Z,18.30
2019-03-21T07:13:41.199Z,18.00
2019-03-21T07:16:09.452Z,18.00
2019-03-21T07:18:37.792Z,18.70
2019-03-21T07:21:05.814Z,19.40
2019-03-21T07:23:33.889Z,20.20
2019-03-21T07:26:01.918Z,21.00
2019-03-21T07:28:29.944Z,22.00
2019-03-21T07:30:58.106Z,22.70
2019-03-21T07:33:26.213Z,23.60
2019-03-21T07:35:54.340Z,24.40
2019-03-21T07:41:28.018Z,25.60
2019-03-21T07:43:56.035Z,26.50
2019-03-21T07:46:23.995Z,27.10
2019-03-21T07:48:52.122Z,27.90
2019-03-21T07:51:20.383Z,28.50
2019-03-21T07:53:48.442Z,29.10
2019-03-21T07:56:16.564Z,29.80
2019-03-21T07:58:44.573Z,30.20
2019-03-21T08:01:12.625Z,30.30
2019-03-21T08:03:40.842Z,30.70
2019-03-21T08:06:08.839Z,31.20
2019-03-21T08:08:37.133Z,31.50
2019-03-21T08:11:05.126Z,31.60
2019-03-21T08:13:33.116Z,31.70
2019-03-21T08:16:01.156Z,31.90
2019-03-21T08:18:29.172Z,31.90
2019-03-21T08:20:59.907Z,31.90
2019-03-21T08:23:27.265Z,31.90
2019-03-21T08:25:55.669Z,32.40
2019-03-21T08:28:23.614Z,32.00
2019-03-21T08:31:17.138Z,30.70
2019-03-21T08:33:45.214Z,29.90
2019-03-21T08:36:13.381Z,29.50
2019-03-21T08:38:41.771Z,29.70
2019-03-21T08:41:10.010Z,29.90
2019-03-21T08:43:38.245Z,29.10
2019-03-21T08:46:06.374Z,28.90
2019-03-21T08:48:34.458Z,28.70
2019-03-21T08:51:08.160Z,28.40
2019-03-21T08:53:32.297Z,28.20
2019-03-21T08:56:00.338Z,28.10
2019-03-21T08:58:28.417Z,27.70
2019-03-21T09:00:56.548Z,27.50
2019-03-21T09:03:24.786Z,27.70
2019-03-21T09:05:52.783Z,27.80
2019-03-21T09:08:20.794Z,27.50
2019-03-21T09:10:48.767Z,27.50
2019-03-21T09:13:16.866Z,27.90
2019-03-21T09:15:44.980Z,28.50
2019-03-21T09:18:13.027Z,28.90
2019-03-21T09:20:41.113Z,28.60
2019-03-21T09:23:09.178Z,28.40
2019-03-21T09:25:37.237Z,28.40
2019-03-21T09:28:05.496Z,28.50
2019-03-21T09:30:33.526Z,29.10
2019-03-21T09:33:01.761Z,29.00
2019-03-21T09:35:29.998Z,29.00
2019-03-21T09:37:59.190Z,29.10
2019-03-21T09:40:27.186Z,29.30
2019-03-21T09:42:55.230Z,29.80
2019-03-21T09:45:26.584Z,29.90
2019-03-21T09:47:54.679Z,30.20
2019-03-21T09:50:27.254Z,30.80
2019-03-21T09:52:55.365Z,31.20
2019-03-21T09:55:23.423Z,31.00
2019-03-21T09:57:51.551Z,30.80
2019-03-21T10:00:30.266Z,29.70
2019-03-21T10:02:58.426Z,28.80
2019-03-21T10:05:26.495Z,28.90
2019-03-21T10:07:54.526Z,29.10
2019-03-21T10:10:27.572Z,29.00
2019-03-21T10:12:55.787Z,28.70
2019-03-21T10:15:23.838Z,28.20
2019-03-21T10:17:52.971Z,28.80
2019-03-21T10:20:20.981Z,27.80
2019-03-21T10:22:49.144Z,27.20
2019-03-21T10:25:17.130Z,27.40
2019-03-21T10:27:46.504Z,27.20
2019-03-21T10:30:28.746Z,27.50
2019-03-21T10:32:56.791Z,27.00
2019-03-21T10:35:25.138Z,27.30
2019-03-21T10:37:53.121Z,28.00
2019-03-21T10:40:21.186Z,28.90
2019-03-21T10:42:49.196Z,30.10
2019-03-21T10:45:18.463Z,30.10
2019-03-21T10:47:46.805Z,29.90
2019-03-21T10:50:18.438Z,28.70
2019-03-21T10:52:46.648Z,27.80
2019-03-21T10:55:14.931Z,27.10
2019-03-21T10:57:42.969Z,26.70
2019-03-21T11:00:11.233Z,26.20
2019-03-21T11:02:39.394Z,25.20
2019-03-21T11:05:07.469Z,25.00
2019-03-21T11:07:35.474Z,24.70
2019-03-21T11:10:05.233Z,24.60
2019-03-21T11:12:33.324Z,24.80
2019-03-21T11:15:01.339Z,25.40
2019-03-21T11:17:29.368Z,25.70
2019-03-21T11:19:57.375Z,25.70
2019-03-21T11:22:25.527Z,25.60
2019-03-21T11:24:53.552Z,25.80
2019-03-21T11:27:21.565Z,26.10
2019-03-21T11:29:50.834Z,26.30
2019-03-21T11:32:19.090Z,27.20
2019-03-21T11:34:47.088Z,27.10
2019-03-21T11:37:15.262Z,27.30
2019-03-21T11:39:43.232Z,27.20
2019-03-21T11:42:11.323Z,28.80
2019-03-21T11:44:39.282Z,30.00
2019-03-21T11:47:07.270Z,31.30
2019-03-21T11:49:35.378Z,32.30
2019-03-21T11:52:03.450Z,32.80
2019-03-21T11:54:31.588Z,32.30
2019-03-21T11:56:59.760Z,33.00
2019-03-21T11:59:41.253Z,34.00
2019-03-21T12:01:57.750Z,34.80
2019-03-21T12:04:25.744Z,35.10
2019-03-21T12:06:53.775Z,34.40
2019-03-21T12:09:21.935Z,33.40
2019-03-21T12:11:50.131Z,32.90
2019-03-21T12:14:18.483Z,32.60
2019-03-21T12:16:46.636Z,33.00
2019-03-21T12:19:14.669Z,33.20
2019-03-21T12:21:42.683Z,32.80
2019-03-21T12:24:10.883Z,33.70
2019-03-21T12:26:39.043Z,34.20
2019-03-21T12:29:07.075Z,33.90
2019-03-21T12:31:35.097Z,33.20
2019-03-21T12:34:03.242Z,34.50
2019-03-21T12:36:31.418Z,35.20
2019-03-21T12:38:59.417Z,35.20
2019-03-21T12:41:27.437Z,34.30
2019-03-21T12:43:55.530Z,34.00
2019-03-21T12:46:23.751Z,33.70
2019-03-21T12:48:52.007Z,33.80
2019-03-21T12:51:20.000Z,33.60
2019-03-21T12:53:48.061Z,33.30
2019-03-21T12:56:16.108Z,33.70
2019-03-21T12:58:44.196Z,35.00
2019-03-21T13:01:12.455Z,36.50
2019-03-21T13:03:40.501Z,36.80
2019-03-21T13:06:08.522Z,37.10
2019-03-21T13:08:36.571Z,37.40
2019-03-21T13:11:04.559Z,36.90
2019-03-21T13:13:32.841Z,36.10
2019-03-21T13:16:00.865Z,36.00
2019-03-21T13:18:29.040Z,35.80
2019-03-21T13:20:57.657Z,35.50
2019-03-21T13:23:25.709Z,35.30
2019-03-21T13:25:53.866Z,35.40
2019-03-21T13:28:22.005Z,35.90
2019-03-21T13:30:50.041Z,36.50
2019-03-21T13:33:18.318Z,36.20
2019-03-21T13:35:46.365Z,36.50
2019-03-21T13:38:14.472Z,36.30
2019-03-21T13:40:42.502Z,35.60
2019-03-21T13:43:11.389Z,35.20
2019-03-21T13:45:39.462Z,34.60
2019-03-21T13:48:07.976Z,34.80
2019-03-21T13:50:36.014Z,35.00
2019-03-21T13:53:06.527Z,35.00
2019-03-21T13:55:34.026Z,35.80
2019-03-21T13:58:02.066Z,36.20
2019-03-21T14:00:30.055Z,36.80
2019-03-21T14:02:58.079Z,36.70
2019-03-21T14:05:26.325Z,34.60
2019-03-21T14:07:54.381Z,34.60
2019-03-21T14:10:22.356Z,34.60
2019-03-21T14:12:50.450Z,33.80
2019-03-21T14:15:18.675Z,33.70
2019-03-21T14:17:46.735Z,33.70
2019-03-21T14:20:14.882Z,33.50
2019-03-21T14:22:42.901Z,33.40
2019-03-21T14:25:11.971Z,32.60
2019-03-21T14:27:40.091Z,32.50
2019-03-21T14:30:08.990Z,32.30
2019-03-21T14:32:37.119Z,31.70
2019-03-21T14:35:06.451Z,31.30
2019-03-21T14:37:34.548Z,31.30
2019-03-21T14:40:02.605Z,31.10
2019-03-21T14:42:30.621Z,31.50
2019-03-21T14:44:58.771Z,32.40
2019-03-21T14:47:35.771Z,32.50
2019-03-21T14:49:56.862Z,32.40
2019-03-21T14:52:24.945Z,32.30
2019-03-21T14:54:52.931Z,31.50
2019-03-21T14:57:21.137Z,30.90
2019-03-21T14:59:49.222Z,29.80
2019-03-21T15:02:17.286Z,29.30
2019-03-21T15:04:46.552Z,28.60
2019-03-21T15:07:14.554Z,28.70
2019-03-21T15:09:42.671Z,28.80
2019-03-21T15:12:11.842Z,28.30
2019-03-21T15:14:39.857Z,28.00
2019-03-21T15:17:07.817Z,27.60
2019-03-21T15:19:35.849Z,27.40
2019-03-21T15:22:03.820Z,26.40
2019-03-21T15:24:31.830Z,26.50
2019-03-21T15:26:59.850Z,26.60
2019-03-21T15:29:27.918Z,26.30
2019-03-21T15:31:56.071Z,26.20
2019-03-21T15:34:24.511Z,26.20
2019-03-21T15:36:52.701Z,26.00
2019-03-21T15:39:21.849Z,25.50
2019-03-21T15:41:49.849Z,24.80
2019-03-21T15:44:17.942Z,24.50
2019-03-21T15:46:48.046Z,24.60
2019-03-21T15:49:16.453Z,24.50
2019-03-21T15:51:44.570Z,24.30
2019-03-21T15:54:13.122Z,24.00
2019-03-21T15:56:44.255Z,24.00
2019-03-21T15:59:12.284Z,24.00
2019-03-21T16:01:40.307Z,24.10
2019-03-21T16:04:08.362Z,24.10
2019-03-21T16:08:56.627Z,23.80
2019-03-21T16:11:24.812Z,23.70
2019-03-21T16:13:52.935Z,23.40
2019-03-21T16:16:21.259Z,23.10
2019-03-21T16:18:49.228Z,22.80
2019-03-21T16:21:17.268Z,22.70
2019-03-21T16:23:45.339Z,22.40
2019-03-21T16:26:13.365Z,22.40
2019-03-21T16:28:41.375Z,22.40
2019-03-21T16:31:09.545Z,22.10
2019-03-21T16:33:37.800Z,21.60
2019-03-21T16:36:06.056Z,21.30
2019-03-21T16:38:34.309Z,21.00
2019-03-21T16:41:03.409Z,20.80
2019-03-21T16:43:31.527Z,20.60
2019-03-21T16:45:59.636Z,20.30
2019-03-21T16:48:27.926Z,19.90
2019-03-21T16:50:56.261Z,19.60
2019-03-21T16:53:24.250Z,19.20
2019-03-21T16:55:52.597Z,19.00
2019-03-21T16:58:20.680Z,18.70
2019-03-21T17:00:49.082Z,18.50
2019-03-21T17:03:20.459Z,18.30
2019-03-21T17:05:48.622Z,18.00
2019-03-21T17:08:16.746Z,17.70
2019-03-21T17:10:44.887Z,17.50
2019-03-21T17:13:13.487Z,17.20
2019-03-21T17:15:41.703Z,17.00
2019-03-21T17:18:09.877Z,16.80
2019-03-21T17:20:37.915Z,16.60
2019-03-21T17:23:06.125Z,16.40
2019-03-21T17:25:34.356Z,16.10
2019-03-21T17:28:02.866Z,15.90
2019-03-21T17:30:31.895Z,15.70
2019-03-21T17:33:00.008Z,15.60
2019-03-21T17:35:28.034Z,15.40
2019-03-21T17:37:56.145Z,15.20
2019-03-21T17:40:24.263Z,15.00
2019-03-21T17:42:52.304Z,14.80
2019-03-21T17:45:20.405Z,14.60
2019-03-21T17:47:48.475Z,14.40
2019-03-21T17:50:17.472Z,14.20
2019-03-21T17:52:45.585Z,14.00
2019-03-21T17:55:14.172Z,13.80
2019-03-21T17:57:42.233Z,13.70
2019-03-21T18:00:13.533Z,13.50
2019-03-21T18:02:41.730Z,13.40
2019-03-21T18:05:10.081Z,13.30
2019-03-21T18:07:38.102Z,13.20
2019-03-21T18:10:08.308Z,13.10
2019-03-21T18:12:36.374Z,13.00
2019-03-21T18:15:05.236Z,12.90
2019-03-21T18:17:33.371Z,12.70
2019-03-21T18:20:01.394Z,12.60
2019-03-21T18:22:29.466Z,12.50
2019-03-21T18:24:57.681Z,12.40
2019-03-21T18:27:25.713Z,12.30
2019-03-21T18:29:53.834Z,12.20
2019-03-21T18:32:21.871Z,12.10
2019-03-21T18:34:49.938Z,11.90
2019-03-21T18:37:18.106Z,11.80
2019-03-21T18:39:46.165Z,11.70
2019-03-21T18:42:14.324Z,11.60
2019-03-21T18:44:42.389Z,11.40
2019-03-21T18:47:10.420Z,11.30
2019-03-21T18:49:38.550Z,11.20
2019-03-21T18:52:06.622Z,11.00
2019-03-21T18:54:34.678Z,10.90
2019-03-21T18:57:02.699Z,10.70
2019-03-21T18:59:30.799Z,10.60
2019-03-21T19:01:59.142Z,10.50
2019-03-21T19:04:27.351Z,10.40
2019-03-21T19:06:55.472Z,10.30
2019-03-21T19:09:23.817Z,10.20
2019-03-21T19:11:51.945Z,10.10
2019-03-21T19:14:20.057Z,10.00
2019-03-21T19:16:48.131Z,9.90
2019-03-21T19:19:16.165Z,9.80
2019-03-21T19:21:44.291Z,9.70
2019-03-21T19:24:12.450Z,9.60
2019-03-21T19:26:40.553Z,9.50
2019-03-21T19:29:08.591Z,9.50
2019-03-21T19:31:36.607Z,9.30
2019-03-21T19:34:04.613Z,9.20
2019-03-21T19:36:32.716Z,9.10
2019-03-21T19:39:00.924Z,9.00
2019-03-21T19:41:28.984Z,8.90
2019-03-21T19:43:57.112Z,8.80
2019-03-21T19:46:25.231Z,8.70
2019-03-21T19:48:53.549Z,8.60
2019-03-21T19:51:21.662Z,8.40
2019-03-21T19:53:49.750Z,8.40
2019-03-21T19:56:18.082Z,8.30
2019-03-21T19:58:46.268Z,8.20
2019-03-21T20:01:14.515Z,8.20
2019-03-21T20:03:42.744Z,8.10
2019-03-21T20:06:10.874Z,8.00
2019-03-21T20:08:39.059Z,8.00
2019-03-21T20:11:07.233Z,7.90
2019-03-21T20:13:35.674Z,7.90
2019-03-21T20:16:03.796Z,7.80
2019-03-21T20:18:32.035Z,7.80
2019-03-21T20:21:00.387Z,7.70
2019-03-21T20:23:29.648Z,7.70
2019-03-21T20:25:57.718Z,7.60
2019-03-21T20:28:25.711Z,7.50
2019-03-21T20:30:53.748Z,7.50
2019-03-21T20:33:21.809Z,7.40
2019-03-21T20:35:49.857Z,7.40
2019-03-21T20:38:17.984Z,7.30
2019-03-21T20:40:46.008Z,7.20
2019-03-21T20:43:14.099Z,7.20
2019-03-21T20:45:42.174Z,7.10
2019-03-21T20:48:10.216Z,7.10
2019-03-21T20:50:39.436Z,7.00
2019-03-21T20:53:08.655Z,7.00
2019-03-21T20:55:36.807Z,7.00
2019-03-21T20:58:04.977Z,6.90
2019-03-21T21:00:33.294Z,6.80
2019-03-21T21:03:01.539Z,6.80
2019-03-21T21:05:29.696Z,6.70
2019-03-21T21:07:58.024Z,6.60
2019-03-21T21:10:26.308Z,6.60
2019-03-21T21:12:54.599Z,6.50
2019-03-21T21:15:23.101Z,6.50
2019-03-21T21:17:52.509Z,6.40
2019-03-21T21:20:20.919Z,6.30
2019-03-21T21:22:49.056Z,6.20
2019-03-21T21:25:17.193Z,6.20
2019-03-21T21:27:49.712Z,6.20
2019-03-21T21:30:16.967Z,6.10
2019-03-21T21:32:45.276Z,6.10
2019-03-21T21:35:14.324Z,6.10
2019-03-21T21:37:42.461Z,6.00
2019-03-21T21:40:24.304Z,6.00
2019-03-21T21:42:52.847Z,5.90
2019-03-21T21:45:21.507Z,5.90
2019-03-21T21:47:49.754Z,5.80
2019-03-21T21:50:17.997Z,5.80
2019-03-21T21:52:46.430Z,5.70
2019-03-21T21:55:15.007Z,5.70
2019-03-21T21:57:43.456Z,5.60
2019-03-21T22:00:13.495Z,5.50
2019-03-21T22:02:42.183Z,5.50
2019-03-21T22:05:10.571Z,5.50
2019-03-21T22:07:38.667Z,5.40
2019-03-21T22:10:08.400Z,5.40
2019-03-21T22:12:37.105Z,5.40
2019-03-21T22:15:06.970Z,5.40
2019-03-21T22:17:35.473Z,5.30
2019-03-21T22:20:04.249Z,5.30
2019-03-21T22:22:32.382Z,5.30
2019-03-21T22:25:00.938Z,5.20
2019-03-21T22:27:29.084Z,5.20
2019-03-21T22:29:57.499Z,5.10
2019-03-21T22:32:26.101Z,5.10
2019-03-21T22:34:54.295Z,5.00
2019-03-21T22:40:22.058Z,5.00
2019-03-21T22:42:50.477Z,4.90
2019-03-21T22:45:18.919Z,4.90
2019-03-21T22:47:50.955Z,4.80
2019-03-21T22:50:19.465Z,4.80
2019-03-21T22:52:50.549Z,4.80
2019-03-21T22:55:19.172Z,4.70
2019-03-21T22:57:47.181Z,4.60
2019-03-21T23:00:17.003Z,4.60
2019-03-21T23:02:47.012Z,4.60
2019-03-21T23:05:15.611Z,4.50
2019-03-21T23:07:43.636Z,4.50
2019-03-21T23:10:11.938Z,4.50
2019-03-21T23:12:40.102Z,4.40
2019-03-21T23:15:08.711Z,4.40
2019-03-21T23:17:38.548Z,4.30
2019-03-21T23:20:07.851Z,4.30
2019-03-21T23:22:36.242Z,4.30
2019-03-21T23:25:05.708Z,4.30
2019-03-21T23:27:34.289Z,4.30
2019-03-21T23:30:04.606Z,4.30
2019-03-21T23:32:32.754Z,4.20
2019-03-21T23:35:00.868Z,4.20
2019-03-21T23:37:29.007Z,4.10
2019-03-21T23:39:56.990Z,4.10
2019-03-21T23:42:24.963Z,4.10
2019-03-21T23:44:54.179Z,4.10
2019-03-21T23:47:22.257Z,4.10
2019-03-21T23:49:50.729Z,4.00
2019-03-21T23:52:18.801Z,4.00
2019-03-21T23:54:46.934Z,3.90
2019-03-21T23:57:15.022Z,3.90
2019-03-21T23:59:43.162Z,3.90
